• Join FlightAware (Why Join?)
  • Login
  • US Flag 
Rudolph Flight #1: Arrived! 
01:52PM EST


 

Airport Tracker/Info


-or-


 

Live Flight TrackerFlight Track Log ✈ SWA3147 ✈ 07-Jun-2014 ✈ KTPA - KBWI

Flight Track Log - Related Links

Times and Time Zones

All times are in EDT time to prevent confusion due to time zone crossing. See the SWA3147 flight status page for this flight to view local times or setup timezone preferences in your user account.

Time Position Orientation Groundspeed Altitude Reporting Facility
EDT Latitude Longitude Course Direction KTS MPH feet Rate Location/Type
06:19AM 27.9667 -82.5500 180° South 154 177 900  Level Tampa TRACON
06:19AM 27.9500 -82.5500 180° South 176 203 2,000 2,220 Climbing Tampa TRACON
06:21AM 27.8700 -82.5992 209° Southwest 212 244 5,800 2,460 Climbing Jacksonville Center
06:22AM 27.9014 -82.6447 308° West 241 277 7,600 2,820 Climbing Miami Center
06:23AM 27.9789 -82.6400 North 275 316 10,600 2,400 Climbing Miami Center
06:24AM 28.0692 -82.6331 North 321 369 12,500 2,520 Climbing Miami Center
06:25AM 28.1675 -82.6175 North 345 397 15,800 3,000 Climbing Miami Center
06:26AM 28.2539 -82.5764 23° Northeast 355 409 18,600 2,760 Climbing Miami Center
06:27AM 28.3656 -82.5689 North 367 422 21,400 2,460 Climbing Miami Center
06:28AM 28.4722 -82.5653 North 374 430 23,600 1,920 Climbing Miami Center
06:29AM 28.5878 -82.5611 North 403 464 25,300 1,260 Climbing Miami Center
06:30AM 28.7069 -82.5558 North 426 490 26,200 1,140 Climbing Miami Center
06:31AM 28.8272 -82.5514 North 428 493 27,600 1,740 Climbing Miami Center
06:32AM 28.9514 -82.5456 North 442 509 29,800 2,220 Climbing Miami Center
06:33AM 29.0706 -82.5428 North 436 502 32,200 1,800 Climbing Miami Center
06:34AM 29.1889 -82.5319 North 429 494 33,500 1,020 Climbing Miami Center
06:35AM 29.3089 -82.4936 16° North 445 512 34,300 1,020 Climbing Miami Center
06:36AM 29.4306 -82.4561 15° North 452 520 35,600 1,380 Climbing Miami Center
06:37AM 29.5767 -82.4114 15° North 454 522 37,100 1,320 Climbing Miami Center
06:38AM 29.6975 -82.3753 15° North 455 524 38,300 900 Climbing Miami Center
06:39AM 29.8178 -82.3378 15° North 453 521 39,000 300 Climbing Miami Center
06:40AM 29.9392 -82.3031 14° North 452 520 39,000  Level Miami Center
06:41AM 30.0514 -82.2642 17° North 452 520 39,000  Level Miami Center
06:42AM 30.1714 -82.2300 14° North 447 514 39,000  Level Miami Center
06:43AM 30.2947 -82.1917 15° North 448 516 39,000  Level Miami Center
06:44AM 30.4439 -82.1431 16° North 448 516 39,000 -240 Level Jacksonville Center
06:45AM 30.5647 -82.1133 12° North 448 516 38,500 -780 Descending Jacksonville Center
06:46AM 30.6856 -82.0736 16° North 448 516 37,500 -780 Descending Jacksonville Center
06:47AM 30.8128 -82.0339 15° North 453 521 37,000 -300 Descending Jacksonville Center
06:48AM 30.9358 -81.9989 14° North 453 521 37,000  Level Jacksonville Center
06:49AM 31.0606 -81.9564 16° North 453 521 37,000  Level Jacksonville Center
06:50AM 31.1814 -81.9211 14° North 449 517 37,000  Level Jacksonville Center
06:51AM 31.3022 -81.8836 15° North 449 517 37,000  Level Jacksonville Center
06:52AM 31.4128 -81.8483 15° North 454 522 37,000  Level Jacksonville Center
06:53AM 31.5458 -81.8028 16° North 447 514 37,000  Level Jacksonville Center
06:54AM 31.6667 -81.7672 14° North 447 514 37,000  Level Jacksonville Center
06:55AM 31.7750 -81.7317 16° North 453 521 37,000  Level Jacksonville Center
06:56AM 31.9083 -81.6908 15° North 447 514 37,000  Level Jacksonville Center
06:57AM 32.0311 -81.6525 15° North 457 526 37,000  Level Jacksonville Center
06:58AM 32.1392 -81.6192 15° North 445 512 37,000  Level Jacksonville Center
06:59AM 32.2744 -81.5756 15° North 445 512 37,000  Level Jacksonville Center
07:00AM 32.3972 -81.5344 16° North 456 525 37,000  Level Jacksonville Center
07:01AM 32.5053 -81.4811 23° Northeast 457 526 37,000  Level Jacksonville Center
07:02AM 32.6253 -81.3881 33° Northeast 469 540 37,000  Level Jacksonville Center
07:03AM 32.7347 -81.3022 33° Northeast 477 549 37,000  Level Jacksonville Center
07:04AM 32.8422 -81.2161 34° Northeast 477 549 37,000  Level Jacksonville Center
07:05AM 32.9497 -81.1325 33° Northeast 477 549 37,000  Level Jacksonville Center
07:06AM 33.0592 -81.0486 33° Northeast 472 543 37,000  Level Jacksonville Center
07:07AM 33.1683 -80.9619 34° Northeast 472 543 37,000  Level Jacksonville Center
07:08AM 33.2778 -80.8775 33° Northeast 472 543 37,000  Level Jacksonville Center
07:09AM 33.3869 -80.7906 34° Northeast 472 543 37,000  Level Jacksonville Center
07:10AM 33.4981 -80.7033 33° Northeast 472 543 37,000  Level Jacksonville Center
07:11AM 33.5969 -80.6258 33° Northeast 477 549 37,000  Level Jacksonville Center
07:12AM 33.7100 -80.5356 34° Northeast 477 549 37,000  Level Jacksonville Center
07:13AM 33.8211 -80.4478 33° Northeast 477 549 37,000  Level Jacksonville Center
07:14AM 33.9319 -80.3569 34° Northeast 477 549 37,000  Level Jacksonville Center
07:15AM 34.0408 -80.2711 33° Northeast 477 549 37,000  Level Jacksonville Center
07:16AM 34.1494 -80.1800 35° Northeast 477 549 37,000  Level Jacksonville Center
07:17AM 34.2600 -80.0886 34° Northeast 477 549 37,000  Level Jacksonville Center
07:18AM 34.3708 -79.9997 33° Northeast 477 549 37,000 -60 Level Jacksonville Center
07:19AM 34.4814 -79.9103 34° Northeast 477 549 36,900 -660 Descending Jacksonville Center
07:20AM 34.6519 -79.7653 35° Northeast 464 534 35,400 -780 Descending Washington Center
07:21AM 34.7594 -79.6722 35° Northeast 464 534 35,000 -240 Descending Washington Center
07:22AM 34.8731 -79.5842 32° Northeast 470 541 35,000  Level Washington Center
07:23AM 34.9822 -79.4958 34° Northeast 475 547 35,000  Level Washington Center
07:24AM 35.0917 -79.4047 34° Northeast 475 547 35,000  Level Washington Center
07:25AM 35.2031 -79.3133 34° Northeast 475 547 35,000  Level Washington Center
07:26AM 35.3122 -79.2242 34° Northeast 475 547 35,000  Level Washington Center
07:27AM 35.4256 -79.1300 34° Northeast 489 563 35,000  Level Washington Center
07:28AM 35.5325 -79.0403 34° Northeast 476 548 35,000  Level Washington Center
07:29AM 35.6439 -78.9453 35° Northeast 476 548 35,000  Level Washington Center
07:30AM 35.7528 -78.8553 34° Northeast 476 548 35,000  Level Washington Center
07:31AM 35.8639 -78.7600 35° Northeast 476 548 35,000  Level Washington Center
07:32AM 35.9706 -78.6667 35° Northeast 476 548 35,000 -420 Level Washington Center
07:33AM 36.0836 -78.5733 34° Northeast 476 548 34,200 -900 Descending Washington Center
07:34AM 36.1922 -78.4797 35° Northeast 476 548 33,300 -900 Descending Washington Center
07:35AM 36.2903 -78.3931 35° Northeast 476 548 32,500 -900 Descending Washington Center
07:36AM 36.4008 -78.2964 35° Northeast 481 554 31,500 -960 Descending Washington Center
07:37AM 36.5136 -78.1994 35° Northeast 481 554 30,600 -1,020 Descending Washington Center
07:38AM 36.6139 -78.1044 37° Northeast 474 545 29,500 -1,080 Descending Washington Center
07:39AM 36.7200 -78.0147 34° Northeast 463 533 28,500 -1,020 Descending Washington Center
07:40AM 36.8197 -77.9269 35° Northeast 452 520 27,500 -780 Descending Washington Center
07:41AM 36.9236 -77.8339 36° Northeast 452 520 27,000 -300 Descending Washington Center
07:42AM 37.0275 -77.7433 35° Northeast 452 520 27,000  Level Washington Center
07:43AM 37.1353 -77.6683 29° Northeast 452 520 27,000  Level Washington Center
07:44AM 37.2508 -77.6217 18° North 436 502 27,000  Level Washington Center
07:45AM 37.3664 -77.5725 19° North 431 496 27,000 -840 Level Washington Center
07:46AM 37.4778 -77.5258 18° North 426 490 25,400 -2,040 Descending Washington Center
07:47AM 37.5850 -77.4786 19° North 421 484 23,100 -1,260 Descending Washington Center
07:48AM 37.6878 -77.4367 18° North 402 463 23,000 -60 Descending Washington Center
07:49AM 37.7906 -77.3919 19° North 397 457 23,000  Level Washington Center
07:50AM 37.8975 -77.3469 18° North 392 451 23,000 -60 Level Washington Center
07:51AM 38.0025 -77.2994 20° North 392 451 22,900 -1,260 Descending Washington Center
07:52AM 38.1158 -77.2544 17° North 392 451 20,500 -2,220 Descending Washington Center
07:53AM 38.2122 -77.2117 19° North 380 437 18,600 -1,980 Descending Washington Center
07:54AM 38.3067 -77.1714 19° North 359 413 16,600 -1,800 Descending Washington Center
07:55AM 38.3950 -77.1203 24° Northeast 348 400 15,000 -1,680 Descending Washington Center
07:56AM 38.4647 -77.0369 43° Northeast 335 386 13,300 -1,500 Descending Washington Center
07:57AM 38.5344 -76.9533 43° Northeast 335 386 12,000 -1,200 Descending Washington Center
07:58AM 38.6022 -76.8747 42° Northeast 330 380 11,000 -1,020 Descending Washington Center
07:59AM 38.6656 -76.7989 43° Northeast 319 367 10,000 -1,020 Descending Washington Center
08:00AM 38.7164 -76.7197 51° Northeast 299 344 9,000 -1,260 Descending Washington Center
08:02AM 38.7833 -76.5667 61° Northeast 273 314 6,800 -1,260 Descending Potomac TRACON
08:03AM 38.8333 -76.5167 38° Northeast 265 305 5,700 -1,080 Descending Potomac TRACON
08:04AM 38.9000 -76.4833 21° North 262 302 4,700 -840 Descending Potomac TRACON
08:05AM 38.9667 -76.4667 11° North 260 299 4,200 -600 Descending Potomac TRACON
08:06AM 39.0333 -76.4500 11° North 231 266 3,600 -720 Descending Potomac TRACON
08:07AM 39.0833 -76.4667 345° North 209 241 2,900 -780 Descending Potomac TRACON
08:08AM 39.1333 -76.4833 346° North 174 200 2,200 -540 Descending Potomac TRACON
08:09AM 39.1667 -76.5167 322° Northwest 178 205 1,900 -360 Descending Potomac TRACON
08:10AM 39.1667 -76.5667 270° West 155 178 1,600 -660 Descending Potomac TRACON
08:11AM 39.1667 -76.6167 270° West 150 173 700 -900 Descending Potomac TRACON
08:13AM 39.1667 -76.6667 331° Northwest  Level FlightAware Approximate
08:20AM 39.1754 -76.6683 331° Northwest  Level Estimated
08:21AM 39.1754 -76.6683 152° Southeast  Level Estimated
08:22AM 39.1754 -76.6683 339° North  Level Estimated
08:23AM 39.1754 -76.6683 152° Southeast  Level Estimated